createdAt,value
2023-03-30T00:01:02.366Z,99865.16
2023-03-30T00:03:30.268Z,99856.41
2023-03-30T00:06:05.319Z,99856.84
2023-03-30T00:08:33.485Z,99859.09
2023-03-30T00:11:10.431Z,99852.59
2023-03-30T00:13:38.195Z,99861.34
2023-03-30T00:16:07.810Z,99864.47
2023-03-30T00:18:36.848Z,99861.47
2023-03-30T00:21:06.130Z,99856.94
2023-03-30T00:23:34.033Z,99846.25
2023-03-30T00:26:01.567Z,99850.75
2023-03-30T00:28:31.148Z,99854.84
2023-03-30T00:30:59.895Z,99842.00
2023-03-30T00:33:37.591Z,99845.78
2023-03-30T00:36:12.110Z,99840.84
2023-03-30T00:38:39.401Z,99839.00
2023-03-30T00:41:07.329Z,99841.28
2023-03-30T00:43:35.163Z,99838.94
2023-03-30T00:46:02.755Z,99834.25
2023-03-30T00:48:37.136Z,99839.75
2023-03-30T00:51:10.621Z,99832.56
2023-03-30T00:53:45.864Z,99835.09
2023-03-30T00:56:16.650Z,99840.19
2023-03-30T00:58:45.396Z,99831.88
2023-03-30T01:01:18.570Z,99834.69
2023-03-30T01:03:48.365Z,99824.09
2023-03-30T01:06:24.444Z,99825.81
2023-03-30T01:08:53.305Z,99831.59
2023-03-30T01:11:21.705Z,99831.13
2023-03-30T01:13:55.055Z,99820.88
2023-03-30T01:17:03.596Z,99826.91
2023-03-30T01:19:40.346Z,99818.75
2023-03-30T01:22:45.905Z,99820.72
2023-03-30T01:25:29.838Z,99819.03
2023-03-30T01:28:15.263Z,99808.31
2023-03-30T01:31:07.285Z,99817.94
2023-03-30T01:33:41.255Z,99823.84
2023-03-30T01:36:31.238Z,99826.63
2023-03-30T01:39:21.744Z,99817.19
2023-03-30T01:42:10.433Z,99819.00
2023-03-30T01:44:56.622Z,99801.84
2023-03-30T01:47:27.799Z,99800.28
2023-03-30T01:49:55.600Z,99797.31
2023-03-30T01:52:28.700Z,99797.19
2023-03-30T01:55:26.032Z,99806.06
2023-03-30T01:58:19.344Z,99804.78
2023-03-30T02:00:50.535Z,99804.38
2023-03-30T02:03:22.883Z,99795.19
2023-03-30T02:05:54.256Z,99798.44
2023-03-30T02:08:26.273Z,99804.09
2023-03-30T02:10:57.439Z,99803.25
2023-03-30T02:13:27.711Z,99796.50
2023-03-30T02:16:03.125Z,99788.84
2023-03-30T02:18:30.670Z,99799.97
2023-03-30T02:20:59.476Z,99797.03
2023-03-30T02:23:33.874Z,99790.13
2023-03-30T02:26:02.097Z,99789.28
2023-03-30T02:28:29.404Z,99788.59
2023-03-30T02:30:57.002Z,99794.19
2023-03-30T02:33:46.921Z,99796.91
2023-03-30T02:36:40.599Z,99804.22
2023-03-30T02:39:14.659Z,99796.19
2023-03-30T02:42:18.291Z,99796.63
2023-03-30T02:45:09.096Z,99794.06
2023-03-30T02:47:57.944Z,99779.84
2023-03-30T02:50:50.927Z,99783.09
2023-03-30T02:53:56.909Z,99787.75
2023-03-30T02:56:55.881Z,99779.28
2023-03-30T02:59:32.625Z,99789.72
2023-03-30T03:02:15.962Z,99771.09
2023-03-30T03:04:49.553Z,99771.97
2023-03-30T03:07:34.021Z,99767.44
2023-03-30T03:10:01.735Z,99761.78
2023-03-30T03:12:29.030Z,99764.63
2023-03-30T03:14:56.591Z,99769.97
2023-03-30T03:17:24.707Z,99767.03
2023-03-30T03:19:52.296Z,99757.28
2023-03-30T03:22:20.993Z,99758.31
2023-03-30T03:24:48.510Z,99755.59
2023-03-30T03:27:16.458Z,99745.34
2023-03-30T03:30:02.220Z,99745.44
2023-03-30T03:32:33.937Z,99746.88
2023-03-30T03:35:01.733Z,99733.78
2023-03-30T03:37:29.235Z,99739.50
2023-03-30T03:39:56.781Z,99743.78
2023-03-30T03:42:25.681Z,99741.66
2023-03-30T03:45:03.565Z,99744.06
2023-03-30T03:47:35.049Z,99727.56
2023-03-30T03:50:04.281Z,99734.06
2023-03-30T03:52:31.903Z,99733.25
2023-03-30T03:54:59.471Z,99733.38
2023-03-30T03:57:27.728Z,99721.19
2023-03-30T03:59:57.097Z,99723.19
2023-03-30T04:02:24.477Z,99723.75
2023-03-30T04:04:54.052Z,99719.63
2023-03-30T04:07:21.666Z,99720.66
2023-03-30T04:09:49.302Z,99716.72
2023-03-30T04:12:35.463Z,99719.81
2023-03-30T04:15:18.404Z,99710.81
2023-03-30T04:18:05.424Z,99709.69
2023-03-30T04:20:57.086Z,99720.38
2023-03-30T04:23:50.170Z,99708.28
2023-03-30T04:26:20.192Z,99718.41
2023-03-30T04:29:06.917Z,99706.41
2023-03-30T04:32:04.049Z,99709.38
2023-03-30T04:34:48.850Z,99708.53
2023-03-30T04:37:30.212Z,99709.66
2023-03-30T04:40:18.633Z,99713.03
2023-03-30T04:42:52.264Z,99710.91
2023-03-30T04:45:53.201Z,99716.91
2023-03-30T04:48:47.008Z,99721.47
2023-03-30T04:51:16.985Z,99706.19
2023-03-30T04:53:53.735Z,99705.22
2023-03-30T04:56:27.959Z,99703.41
2023-03-30T04:59:10.746Z,99697.16
2023-03-30T05:01:56.575Z,99680.34
2023-03-30T05:04:47.537Z,99689.81
2023-03-30T05:07:20.482Z,99682.13
2023-03-30T05:10:26.837Z,99687.94
2023-03-30T05:13:17.524Z,99691.97
2023-03-30T05:16:00.123Z,99679.50
2023-03-30T05:18:45.990Z,99686.31
2023-03-30T05:21:31.940Z,99680.19
2023-03-30T05:24:19.957Z,99666.97
2023-03-30T05:26:59.740Z,99677.13
2023-03-30T05:29:43.868Z,99683.78
2023-03-30T05:32:17.586Z,99680.72
2023-03-30T05:35:05.770Z,99684.09
2023-03-30T05:37:33.798Z,99686.31
2023-03-30T05:40:28.190Z,99685.53
2023-03-30T05:43:12.822Z,99690.63
2023-03-30T05:45:58.697Z,99691.16
2023-03-30T05:48:46.160Z,99685.84
2023-03-30T05:51:36.213Z,99681.22
2023-03-30T05:54:29.887Z,99669.94
2023-03-30T05:57:19.954Z,99680.88
2023-03-30T06:00:07.778Z,99679.19
2023-03-30T06:02:47.958Z,99675.28
2023-03-30T06:05:19.365Z,99667.75
2023-03-30T06:07:47.344Z,99666.69
2023-03-30T06:10:14.988Z,99667.03
2023-03-30T06:12:43.879Z,99664.59
2023-03-30T06:15:25.577Z,99665.72
2023-03-30T06:17:59.405Z,99670.09
2023-03-30T06:20:27.471Z,99666.78
2023-03-30T06:22:55.598Z,99657.22
2023-03-30T06:25:25.488Z,99663.38
2023-03-30T06:27:55.671Z,99666.78
2023-03-30T06:30:23.463Z,99661.22
2023-03-30T06:32:53.717Z,99664.63
2023-03-30T06:35:25.573Z,99660.13
2023-03-30T06:37:54.049Z,99663.13
2023-03-30T06:40:21.614Z,99659.34
2023-03-30T06:42:51.749Z,99669.00
2023-03-30T06:45:40.837Z,99652.69
2023-03-30T06:48:08.445Z,99661.97
2023-03-30T06:50:40.709Z,99663.59
2023-03-30T06:53:19.367Z,99657.31
2023-03-30T06:55:54.176Z,99659.81
2023-03-30T06:58:22.542Z,99649.06
2023-03-30T07:00:51.866Z,99654.34
2023-03-30T07:03:34.196Z,99648.47
2023-03-30T07:06:12.642Z,99662.78
2023-03-30T07:08:40.634Z,99663.06
2023-03-30T07:11:11.526Z,99663.75
2023-03-30T07:13:40.785Z,99664.97
2023-03-30T07:16:09.217Z,99653.75
2023-03-30T07:18:36.482Z,99656.19
2023-03-30T07:21:05.778Z,99655.63
2023-03-30T07:23:39.113Z,99655.31
2023-03-30T07:26:07.747Z,99665.44
2023-03-30T07:28:41.504Z,99640.53
2023-03-30T07:31:13.852Z,99652.16
2023-03-30T07:33:43.278Z,99638.69
2023-03-30T07:36:15.028Z,99643.41
2023-03-30T07:38:42.343Z,99643.22
2023-03-30T07:41:14.052Z,99639.38
2023-03-30T07:43:42.112Z,99643.69
2023-03-30T07:46:12.505Z,99637.31
2023-03-30T07:48:44.146Z,99641.91
2023-03-30T07:51:13.887Z,99632.25
2023-03-30T07:54:00.949Z,99641.41
2023-03-30T07:56:44.732Z,99646.13
2023-03-30T07:59:13.674Z,99635.53
2023-03-30T08:01:43.555Z,99639.41
2023-03-30T08:04:26.525Z,99631.25
2023-03-30T08:06:55.001Z,99630.84
2023-03-30T08:09:24.002Z,99628.41
2023-03-30T08:11:51.674Z,99615.66
2023-03-30T08:14:18.899Z,99617.16
2023-03-30T08:16:46.507Z,99618.00
2023-03-30T08:19:13.713Z,99617.16
2023-03-30T08:21:41.257Z,99616.19
2023-03-30T08:24:09.977Z,99608.25
2023-03-30T08:26:38.577Z,99616.56
2023-03-30T08:29:07.129Z,99618.25
2023-03-30T08:31:34.671Z,99605.84
2023-03-30T08:34:04.438Z,99604.94
2023-03-30T08:36:32.039Z,99598.72
2023-03-30T08:38:59.260Z,99602.69
2023-03-30T08:41:29.683Z,99598.34
2023-03-30T08:44:01.933Z,99583.94
2023-03-30T08:46:30.846Z,99590.59
2023-03-30T08:49:01.378Z,99588.09
2023-03-30T08:51:34.471Z,99581.06
2023-03-30T08:54:07.902Z,99580.19
2023-03-30T08:56:55.752Z,99576.41
2023-03-30T08:59:41.142Z,99582.84
2023-03-30T09:02:30.745Z,99586.31
2023-03-30T09:05:08.641Z,99568.66
2023-03-30T09:08:00.578Z,99571.72
2023-03-30T09:10:32.558Z,99568.50
2023-03-30T09:13:02.429Z,99558.22
2023-03-30T09:16:18.846Z,99563.81
2023-03-30T09:18:52.332Z,99564.09
2023-03-30T09:21:24.328Z,99548.44
2023-03-30T09:23:53.837Z,99552.41
2023-03-30T09:26:35.582Z,99547.84
2023-03-30T09:29:15.928Z,99554.66
2023-03-30T09:31:59.824Z,99546.72
2023-03-30T09:34:38.079Z,99534.00
2023-03-30T09:37:05.556Z,99529.81
2023-03-30T09:39:36.340Z,99521.22
2023-03-30T09:42:41.483Z,99533.66
2023-03-30T09:45:22.546Z,99526.50
2023-03-30T09:47:50.314Z,99507.47
2023-03-30T09:50:23.672Z,99505.72
2023-03-30T09:53:29.537Z,99508.25
2023-03-30T09:56:01.220Z,99490.22
2023-03-30T09:58:34.185Z,99478.91
2023-03-30T10:01:07.125Z,99474.72
2023-03-30T10:03:35.750Z,99476.59
2023-03-30T10:06:09.940Z,99465.91
2023-03-30T10:08:57.887Z,99471.28
2023-03-30T10:11:43.088Z,99464.25
2023-03-30T10:14:31.639Z,99449.63
2023-03-30T10:17:00.186Z,99450.28
2023-03-30T10:19:28.923Z,99449.31
2023-03-30T10:21:58.922Z,99458.88
2023-03-30T10:24:34.278Z,99438.50
2023-03-30T10:27:06.246Z,99440.50
2023-03-30T10:29:33.811Z,99440.41
2023-03-30T10:32:31.121Z,99438.94
2023-03-30T10:35:02.140Z,99424.38
2023-03-30T10:37:34.415Z,99414.31
2023-03-30T10:40:11.289Z,99424.03
2023-03-30T10:42:40.977Z,99425.50
2023-03-30T10:45:19.193Z,99420.81
2023-03-30T10:47:56.391Z,99430.03
2023-03-30T10:51:10.320Z,99432.19
2023-03-30T10:53:43.745Z,99430.72
2023-03-30T10:56:17.368Z,99426.72
2023-03-30T10:59:15.635Z,99432.41
2023-03-30T11:01:55.483Z,99422.75
2023-03-30T11:04:49.186Z,99417.78
2023-03-30T11:07:43.138Z,99419.00
2023-03-30T11:10:21.429Z,99426.38
2023-03-30T11:13:02.943Z,99411.25
2023-03-30T11:15:35.516Z,99421.97
2023-03-30T11:18:09.062Z,99411.75
2023-03-30T11:20:50.809Z,99392.72
2023-03-30T11:23:28.043Z,99379.41
2023-03-30T11:26:01.238Z,99377.41
2023-03-30T11:28:41.119Z,99365.56
2023-03-30T11:31:27.720Z,99370.09
2023-03-30T11:34:40.096Z,99368.09
2023-03-30T11:37:18.192Z,99361.06
2023-03-30T11:40:02.484Z,99351.63
2023-03-30T11:42:32.167Z,99337.22
2023-03-30T11:45:02.833Z,99355.06
2023-03-30T11:47:36.139Z,99362.88
2023-03-30T11:50:18.045Z,99353.97
2023-03-30T11:52:51.172Z,99360.25
2023-03-30T11:55:47.693Z,99354.16
2023-03-30T11:58:27.195Z,99345.16
2023-03-30T12:00:57.906Z,99346.31
2023-03-30T12:03:44.994Z,99342.72
2023-03-30T12:06:37.059Z,99331.53
2023-03-30T12:09:17.352Z,99319.66
2023-03-30T12:11:56.374Z,99309.38
2023-03-30T12:14:34.769Z,99311.69
2023-03-30T12:17:34.749Z,99294.84
2023-03-30T12:20:29.890Z,99299.63
2023-03-30T12:23:16.393Z,99299.34
2023-03-30T12:26:02.630Z,99305.34
2023-03-30T12:29:26.331Z,99294.84
2023-03-30T12:31:51.778Z,99312.31
2023-03-30T12:34:21.135Z,99304.91
2023-03-30T12:36:58.184Z,99298.03
2023-03-30T12:39:31.252Z,99293.59
2023-03-30T12:42:05.999Z,99302.47
2023-03-30T12:44:52.573Z,99300.56
2023-03-30T12:47:38.415Z,99287.13
2023-03-30T12:50:18.537Z,99285.66
2023-03-30T12:52:57.957Z,99274.50
2023-03-30T12:55:47.821Z,99275.50
2023-03-30T12:58:43.739Z,99262.56
2023-03-30T13:01:12.169Z,99255.44
2023-03-30T13:03:50.014Z,99245.97
2023-03-30T13:06:48.044Z,99242.78
2023-03-30T13:09:15.236Z,99240.47
2023-03-30T13:12:06.165Z,99244.44
2023-03-30T13:14:35.092Z,99252.22
2023-03-30T13:17:02.720Z,99249.25
2023-03-30T13:19:32.836Z,99251.88
2023-03-30T13:22:12.502Z,99235.22
2023-03-30T13:24:42.882Z,99232.88
2023-03-30T13:27:41.841Z,99223.84
2023-03-30T13:30:09.124Z,99207.13
2023-03-30T13:32:39.691Z,99213.84
2023-03-30T13:35:28.558Z,99207.88
2023-03-30T13:38:33.356Z,99207.22
2023-03-30T13:41:22.075Z,99205.44
2023-03-30T13:44:12.187Z,99215.13
2023-03-30T13:47:08.489Z,99198.03
2023-03-30T13:49:54.794Z,99219.63
2023-03-30T13:52:32.301Z,99217.78
2023-03-30T13:55:01.933Z,99218.16
2023-03-30T13:57:41.489Z,99202.81
2023-03-30T14:00:25.490Z,99198.50
2023-03-30T14:02:52.917Z,99188.00
2023-03-30T14:05:22.921Z,99182.56
2023-03-30T14:07:50.373Z,99181.28
2023-03-30T14:10:20.935Z,99174.72
2023-03-30T14:12:53.896Z,99172.72
2023-03-30T14:15:33.939Z,99171.69
2023-03-30T14:18:02.615Z,99164.03
2023-03-30T14:20:58.283Z,99171.22
2023-03-30T14:23:39.651Z,99162.31
2023-03-30T14:26:15.095Z,99157.44
2023-03-30T14:28:42.747Z,99149.06
2023-03-30T14:31:17.664Z,99145.06
2023-03-30T14:33:45.690Z,99142.66
2023-03-30T14:36:16.432Z,99149.56
2023-03-30T14:38:49.700Z,99140.16
2023-03-30T14:41:23.360Z,99140.31
2023-03-30T14:44:13.683Z,99134.16
2023-03-30T14:46:47.486Z,99130.22
2023-03-30T14:49:23.641Z,99127.09
2023-03-30T14:51:55.291Z,99128.91
2023-03-30T14:54:28.639Z,99136.97
2023-03-30T14:57:02.818Z,99118.75
2023-03-30T14:59:33.591Z,99119.66
2023-03-30T15:02:02.536Z,99129.56
2023-03-30T15:04:35.890Z,99123.16
2023-03-30T15:07:03.904Z,99114.09
2023-03-30T15:09:38.652Z,99102.28
2023-03-30T15:12:06.748Z,99095.28
2023-03-30T15:14:40.398Z,99107.41
2023-03-30T15:17:18.465Z,99106.91
2023-03-30T15:19:48.650Z,99094.06
2023-03-30T15:22:37.142Z,99108.56
2023-03-30T15:25:09.578Z,99085.59
2023-03-30T15:27:38.967Z,99080.03
2023-03-30T15:30:08.109Z,99082.50
2023-03-30T15:32:39.497Z,99089.28
2023-03-30T15:35:15.634Z,99080.69
2023-03-30T15:38:06.287Z,99081.22
2023-03-30T15:40:35.327Z,99076.63
2023-03-30T15:43:27.109Z,99067.50
2023-03-30T15:46:12.895Z,99064.06
2023-03-30T15:48:45.894Z,99052.28
2023-03-30T15:51:22.635Z,99065.47
2023-03-30T15:53:55.632Z,99055.22
2023-03-30T15:56:38.620Z,99048.00
2023-03-30T15:59:13.838Z,99048.97
2023-03-30T16:01:49.335Z,99052.00
2023-03-30T16:04:22.153Z,99044.41
2023-03-30T16:06:50.156Z,99029.22
2023-03-30T16:09:17.943Z,99040.53
2023-03-30T16:11:46.789Z,99029.66
2023-03-30T16:14:20.560Z,99015.44
2023-03-30T16:16:48.838Z,99009.09
2023-03-30T16:19:20.343Z,99009.50
2023-03-30T16:21:47.742Z,99014.84
2023-03-30T16:24:15.549Z,99006.97
2023-03-30T16:26:42.998Z,98997.22
2023-03-30T16:29:28.796Z,98995.63
2023-03-30T16:31:56.128Z,99006.34
2023-03-30T16:34:24.368Z,99003.50
2023-03-30T16:36:52.815Z,98993.94
2023-03-30T16:39:28.937Z,98993.44
2023-03-30T16:41:56.757Z,98984.25
2023-03-30T16:44:25.230Z,98991.06
2023-03-30T16:46:53.140Z,98986.31
2023-03-30T16:49:23.232Z,98983.53
2023-03-30T16:51:52.654Z,98985.44
2023-03-30T16:54:31.488Z,98980.19
2023-03-30T16:57:01.698Z,98978.56
2023-03-30T16:59:30.930Z,98973.94
2023-03-30T17:01:59.086Z,98962.66
2023-03-30T17:04:26.850Z,98956.91
2023-03-30T17:06:55.041Z,98973.88
2023-03-30T17:09:23.387Z,98979.78
2023-03-30T17:11:50.800Z,98983.22
2023-03-30T17:14:20.287Z,98977.16
2023-03-30T17:16:47.781Z,98980.81
2023-03-30T17:19:15.461Z,98972.22
2023-03-30T17:21:43.849Z,98967.91
2023-03-30T17:24:12.856Z,98956.22
2023-03-30T17:26:41.123Z,98950.97
2023-03-30T17:29:09.898Z,98937.16
2023-03-30T17:31:38.481Z,98941.03
2023-03-30T17:34:07.312Z,98939.56
2023-03-30T17:36:35.049Z,98940.31
2023-03-30T17:39:05.520Z,98939.97
2023-03-30T17:41:38.231Z,98944.88
2023-03-30T17:44:06.623Z,98945.63
2023-03-30T17:46:34.225Z,98943.72
2023-03-30T17:49:02.134Z,98948.56
2023-03-30T17:51:29.419Z,98961.44
2023-03-30T17:53:56.976Z,98943.66
2023-03-30T17:56:24.194Z,98944.81
2023-03-30T17:58:53.282Z,98944.88
2023-03-30T18:01:20.530Z,98934.94
2023-03-30T18:03:48.136Z,98930.25
2023-03-30T18:06:15.764Z,98926.13
2023-03-30T18:08:44.096Z,98926.38
2023-03-30T18:11:11.576Z,98923.31
2023-03-30T18:13:39.121Z,98923.81
2023-03-30T18:16:06.574Z,98916.66
2023-03-30T18:18:34.194Z,98924.50
2023-03-30T18:21:04.897Z,98922.47
2023-03-30T18:23:34.735Z,98908.06
2023-03-30T18:26:12.202Z,98920.28
2023-03-30T18:28:44.182Z,98913.69
2023-03-30T18:31:12.015Z,98921.56
2023-03-30T18:33:39.772Z,98906.84
2023-03-30T18:36:12.596Z,98907.13
2023-03-30T18:38:40.909Z,98904.50
2023-03-30T18:41:11.879Z,98898.91
2023-03-30T18:43:39.407Z,98890.38
2023-03-30T18:46:06.881Z,98896.09
2023-03-30T18:48:34.796Z,98900.34
2023-03-30T18:51:02.328Z,98893.28
2023-03-30T18:53:29.841Z,98896.91
2023-03-30T18:56:00.670Z,98898.66
2023-03-30T18:58:31.124Z,98885.94
2023-03-30T19:00:58.455Z,98888.63
2023-03-30T19:03:30.189Z,98876.31
2023-03-30T19:05:57.703Z,98877.09
2023-03-30T19:08:26.489Z,98871.44
2023-03-30T19:10:56.898Z,98870.00
2023-03-30T19:13:26.267Z,98880.19
2023-03-30T19:15:54.693Z,98874.44
2023-03-30T19:18:22.608Z,98876.53
2023-03-30T19:20:51.146Z,98877.44
2023-03-30T19:23:21.744Z,98864.66
2023-03-30T19:25:49.209Z,98871.66
2023-03-30T19:28:16.875Z,98878.63
2023-03-30T19:30:44.792Z,98868.97
2023-03-30T19:33:16.523Z,98869.53
2023-03-30T19:35:44.847Z,98879.09
2023-03-30T19:38:13.781Z,98868.97
2023-03-30T19:40:41.815Z,98875.22
2023-03-30T19:43:09.775Z,98878.84
2023-03-30T19:45:37.656Z,98875.56
2023-03-30T19:48:05.678Z,98876.16
2023-03-30T19:50:33.040Z,98879.56
2023-03-30T19:53:00.598Z,98881.69
2023-03-30T19:55:28.013Z,98879.28
2023-03-30T19:57:55.800Z,98876.31
2023-03-30T20:00:23.932Z,98866.91
2023-03-30T20:02:54.398Z,98867.75
2023-03-30T20:05:24.706Z,98851.06
2023-03-30T20:07:52.803Z,98854.03
2023-03-30T20:10:23.203Z,98842.88
2023-03-30T20:12:52.249Z,98851.69
2023-03-30T20:15:21.401Z,98852.28
2023-03-30T20:17:49.070Z,98843.16
2023-03-30T20:20:22.901Z,98834.81
2023-03-30T20:22:53.534Z,98835.66
2023-03-30T20:25:21.875Z,98849.00
2023-03-30T20:27:49.803Z,98832.47
2023-03-30T20:30:17.310Z,98835.72
2023-03-30T20:32:53.016Z,98845.31
2023-03-30T20:35:27.345Z,98848.94
2023-03-30T20:37:55.553Z,98839.38
2023-03-30T20:40:23.186Z,98839.66
2023-03-30T20:42:50.881Z,98845.97
2023-03-30T20:45:26.129Z,98827.47
2023-03-30T20:47:54.065Z,98829.06
2023-03-30T20:50:21.533Z,98833.06
2023-03-30T20:52:49.046Z,98821.28
2023-03-30T20:55:17.044Z,98824.72
2023-03-30T20:57:44.606Z,98822.78
2023-03-30T21:00:12.660Z,98807.63
2023-03-30T21:02:40.449Z,98822.94
2023-03-30T21:05:08.620Z,98819.03
2023-03-30T21:07:38.394Z,98811.53
2023-03-30T21:10:06.531Z,98812.75
2023-03-30T21:12:34.142Z,98817.28
2023-03-30T21:15:01.461Z,98811.47
2023-03-30T21:17:29.136Z,98807.09
2023-03-30T21:19:56.400Z,98805.25
2023-03-30T21:22:23.970Z,98812.00
2023-03-30T21:24:51.319Z,98807.47
2023-03-30T21:27:19.096Z,98811.09
2023-03-30T21:29:46.392Z,98801.69
2023-03-30T21:32:13.896Z,98811.09
2023-03-30T21:34:41.155Z,98806.56
2023-03-30T21:37:08.791Z,98802.34
2023-03-30T21:39:36.249Z,98815.25
2023-03-30T21:42:05.312Z,98800.13
2023-03-30T21:44:36.438Z,98813.78
2023-03-30T21:47:04.119Z,98813.22
2023-03-30T21:49:31.745Z,98818.25
2023-03-30T21:51:59.325Z,98805.50
2023-03-30T21:54:27.105Z,98805.03
2023-03-30T21:56:54.798Z,98810.16
2023-03-30T21:59:22.060Z,98802.56
2023-03-30T22:01:49.577Z,98807.75
2023-03-30T22:04:16.825Z,98798.25
2023-03-30T22:06:44.345Z,98803.09
2023-03-30T22:09:11.803Z,98807.94
2023-03-30T22:11:39.396Z,98796.88
2023-03-30T22:14:06.744Z,98800.69
2023-03-30T22:16:36.859Z,98799.66
2023-03-30T22:19:04.465Z,98801.63
2023-03-30T22:21:35.688Z,98791.69
2023-03-30T22:24:04.880Z,98796.63
2023-03-30T22:26:32.633Z,98793.16
2023-03-30T22:29:00.129Z,98797.81
2023-03-30T22:31:28.437Z,98791.13
2023-03-30T22:33:56.479Z,98801.97
2023-03-30T22:36:26.826Z,98802.56
2023-03-30T22:38:56.075Z,98793.56
2023-03-30T22:41:24.815Z,98800.41
2023-03-30T22:43:57.414Z,98796.59
2023-03-30T22:46:27.162Z,98800.41
2023-03-30T22:48:57.732Z,98803.19
2023-03-30T22:51:28.660Z,98796.50
2023-03-30T22:54:00.111Z,98807.00
2023-03-30T22:56:29.379Z,98795.19
2023-03-30T22:58:57.648Z,98809.59
2023-03-30T23:01:25.886Z,98796.81
2023-03-30T23:03:53.615Z,98798.72
2023-03-30T23:06:21.557Z,98797.81
2023-03-30T23:08:49.133Z,98797.34
2023-03-30T23:11:17.085Z,98794.75
2023-03-30T23:13:44.349Z,98806.63
2023-03-30T23:16:11.884Z,98800.59
2023-03-30T23:18:39.673Z,98801.53
2023-03-30T23:21:08.386Z,98789.81
2023-03-30T23:23:36.368Z,98790.56
2023-03-30T23:26:08.973Z,98785.00
2023-03-30T23:28:39.811Z,98792.16
2023-03-30T23:31:13.271Z,98794.84
2023-03-30T23:33:41.860Z,98796.81
2023-03-30T23:36:14.000Z,98791.31
2023-03-30T23:38:41.828Z,98799.38
2023-03-30T23:41:09.734Z,98797.53
2023-03-30T23:43:36.951Z,98800.59
2023-03-30T23:46:05.112Z,98794.28
2023-03-30T23:48:32.833Z,98801.78
2023-03-30T23:51:00.457Z,98799.97
2023-03-30T23:53:27.709Z,98783.81
2023-03-30T23:55:55.308Z,98789.66
2023-03-30T23:58:23.294Z,98790.47
